Mazar-i-Sharif, Afghanistan
Current Conditions -  °F | °C
As of 6:50 AM on Sunday 26 Oct 2014 (Local Time) from OAMS Reporting Station
Few Clouds Few Clouds  
Wind Chill: 64°   Ceiling: Unl
Heat Index: 64°   Visibility: 6mi
Dew Point: 39°   Wind: 3mph
Humidity: 40%   Direction: 170°S
Pressure: 30"   Gusts: NA
Location:  36.7°N, 67.12°E
Report Text: OAMS 260250Z 17003KT 9999 FEW100 18/04 Q1016 BLU+BLU+
Loading
Personal Weather Stations






























Interactive Weather Map
Tropical Storm Tracking
New forecast layout! Learn more

10-Day Weather Forecast

Advertisements
Track Severe Weather on mobile